Airfield :
LOGIN :

Register | Disclaimer

   EN    FR    IT 

 










Legend :    VFR   Marginal VFR   IFR   Intensive IFR   Very Intensive IFR
Visi :
Ceiling :
>= 8 km
>= 3000ft
5 to 8 km
1000 to 3000 ft
1500m to 5 km
500 to 1000 ft
800 to 1500m
200 to 500 ft
< 800m
< 200 ft
Symbols :   Thunderstorms  Fog  Heavy snow  Heavy precipitations  Wind > 20 kt
SIGMETs :     Misc.  Thunderstorms  Icing  Turbulence  Mountain Waves  Volcanic Ashes







- Airport Elevation : 1249 ft


ETSN - Neuburg AB

CURRENT METAR :
  • 291020Z 23006KT 9999 FEW023 10/03 Q1018 BLU+

EXPIRED METARs :
  • 290920Z 24007KT 9999 FEW020 BKN080 08/03 Q1018 BLU
  • 290820Z 21005KT 9999 FEW012 SCT030 BKN080 06/03 Q1018 BLU

TAF TAF ETSN
Valid from the 29 at 11:00 until the 29 at 20:00 UTC


291015Z 2911/2920 23005KT 9999 NSW SCT030 BKN060
PROB30 2911/2914 25010KT 7000 -SHRA BKN025 BY ETGL
No reported NOTAMs for that airfield.



MET'MAP, your aeronautical weather chart ! - Copyright ORBIFLY December 2007 - Disclaimer

ORBIFLY MET'MAP TEAM :

Programming & Development : Alexandra Zaïnal
Concept & Development : Baudouin d'Aumeries
Co-Development & Prog : Marc-Olivier Méhu
Technical & hardware support : Manuel Goepfert

Contact : metmap@orbifly.com




SOURCES & CREDITS :

   NOAA